Time;durP1;ratioP1;P1;durP2;ratioP2;P2;SDS_P1;SDS_P2;PMS_P1;PMS_P2;Temp;Humidity;BMP_temperature;BMP_pressure;BME280_temperature;BME280_humidity;BME280_pressure;Samples;Min_cycle;Max_cycle;Signal;HPM_P1;HPM_P2
2024/01/04 00:04:08;;;;;;;0.30;0.30;;;;;;;8.43;62.10;97885.28;10503109;28;20044;-63
2024/01/04 00:09:11;;;;;;;1.02;0.50;;;;;;;8.42;62.30;97901.88;10523900;28;20051;-62
2024/01/04 00:14:13;;;;;;;0.63;0.63;;;;;;;8.38;62.59;97910.06;10522403;28;20044;-63
2024/01/04 00:19:15;;;;;;;0.32;0.30;;;;;;;8.38;62.63;97904.84;10520967;28;20106;-63
2024/01/04 00:24:18;;;;;;;2.05;0.40;;;;;;;8.37;62.35;97913.59;10522067;28;20040;-62
2024/01/04 00:29:19;;;;;;;0.10;0.10;;;;;;;8.20;62.49;97919.41;10522247;28;20097;-62
2024/01/04 00:34:21;;;;;;;0.20;0.20;;;;;;;8.41;62.01;97918.44;10494047;28;20058;-63
2024/01/04 00:39:24;;;;;;;0.85;0.38;;;;;;;8.38;61.84;97923.09;10487768;28;20131;-63
2024/01/04 00:44:26;;;;;;;0.25;0.22;;;;;;;8.44;61.53;97927.78;10519007;28;20502;-62
2024/01/04 00:49:31;;;;;;;0.20;0.20;;;;;;;8.39;61.01;97932.53;10498798;28;20048;-63
2024/01/04 00:54:33;;;;;;;0.60;0.60;;;;;;;8.52;61.13;97943.63;10519749;28;20056;-62
2024/01/04 00:59:35;;;;;;;2.42;0.73;;;;;;;8.56;61.04;97953.66;10499851;28;20052;-62
2024/01/04 01:04:37;;;;;;;0.60;0.60;;;;;;;8.51;61.48;97960.19;10519008;28;20261;-63
2024/01/04 01:09:40;;;;;;;0.38;0.38;;;;;;;8.44;61.76;97953.84;10521081;28;20147;-62
2024/01/04 01:14:42;;;;;;;0.25;0.25;;;;;;;8.40;61.44;97948.06;10500620;28;20477;-62
2024/01/04 01:19:44;;;;;;;0.20;0.20;;;;;;;8.40;61.16;97957.66;10500259;28;20460;-63
2024/01/04 01:24:46;;;;;;;0.10;0.10;;;;;;;8.29;62.43;97978.53;10519647;28;20052;-63
2024/01/04 01:29:48;;;;;;;0.47;0.20;;;;;;;8.14;63.69;98003.22;10516724;28;20043;-63
2024/01/04 01:34:51;;;;;;;0.50;0.30;;;;;;;8.04;63.78;98019.53;10533960;27;20056;-63
2024/01/04 01:39:54;;;;;;;0.65;0.50;;;;;;;7.98;64.62;98040.84;10516379;28;20074;-63
2024/01/04 01:44:56;;;;;;;0.28;0.28;;;;;;;7.98;64.37;98034.78;10498005;28;20083;-63
2024/01/04 01:49:58;;;;;;;0.52;0.35;;;;;;;7.96;64.35;98042.72;10485143;28;20120;-63
2024/01/04 01:55:00;;;;;;;0.45;0.30;;;;;;;7.92;65.03;98058.69;10517917;28;20097;-62
2024/01/04 02:12:51;;;;;;;0.90;0.47;;;;;;;7.87;64.82;98095.53;10507141;28;20036;-62
2024/01/04 02:17:53;;;;;;;0.47;0.47;;;;;;;7.72;65.63;98101.91;10491831;28;21016;-63
2024/01/04 02:22:55;;;;;;;0.40;0.40;;;;;;;7.88;65.24;98114.53;10496396;28;20051;-63
2024/01/04 02:27:58;;;;;;;0.38;0.35;;;;;;;7.75;65.97;98117.25;10514414;28;20286;-63
2024/01/04 02:33:00;;;;;;;0.22;0.22;;;;;;;7.66;66.38;98117.16;10495614;28;20102;-63
2024/01/04 02:38:02;;;;;;;0.30;0.30;;;;;;;7.71;65.92;98136.66;10516094;28;20208;-63
2024/01/04 02:43:09;;;;;;;0.30;0.30;;;;;;;7.56;66.28;98126.59;10494966;28;20511;-63
2024/01/04 02:48:11;;;;;;;0.52;0.52;;;;;;;7.66;66.12;98127.56;10499094;28;20158;-63
2024/01/04 02:53:13;;;;;;;0.25;0.25;;;;;;;7.72;66.14;98146.13;10480545;28;20072;-62
2024/01/04 02:58:15;;;;;;;0.32;0.28;;;;;;;7.82;66.02;98148.84;10515758;28;20609;-63
2024/01/04 03:03:17;;;;;;;0.20;0.20;;;;;;;7.70;66.42;98161.03;10497519;28;20125;-63
2024/01/04 03:08:19;;;;;;;0.55;0.40;;;;;;;7.72;66.37;98174.75;10492538;28;20066;-64
2024/01/04 03:13:21;;;;;;;0.38;0.32;;;;;;;7.83;66.06;98187.75;10515311;28;20370;-62
2024/01/04 03:18:23;;;;;;;0.30;0.30;;;;;;;7.64;67.01;98187.50;10514823;28;20130;-63
2024/01/04 03:23:26;;;;;;;0.22;0.22;;;;;;;7.61;67.07;98190.34;10512897;28;21090;-63
2024/01/04 03:28:28;;;;;;;0.68;0.20;;;;;;;7.55;67.89;98210.81;10515895;28;20055;-63
2024/01/04 03:33:30;;;;;;;0.90;0.77;;;;;;;7.64;67.42;98207.50;10495665;28;20607;-63
2024/01/04 03:38:32;;;;;;;0.30;0.30;;;;;;;7.62;67.59;98231.03;10515158;28;20051;-63
2024/01/04 03:43:34;;;;;;;1.00;0.88;;;;;;;7.57;67.80;98225.31;10514845;28;20048;-63
2024/01/04 03:48:36;;;;;;;0.32;0.32;;;;;;;7.56;68.59;98234.09;10514592;28;20211;-63
2024/01/04 03:53:38;;;;;;;0.10;0.10;;;;;;;7.56;68.15;98231.50;10515486;28;20048;-63
2024/01/04 03:58:40;;;;;;;0.20;0.20;;;;;;;7.53;68.18;98252.50;10497864;28;20864;-62
2024/01/04 04:03:42;;;;;;;0.20;0.20;;;;;;;7.67;67.84;98264.53;10513607;28;20496;-63
2024/01/04 04:08:45;;;;;;;0.32;0.32;;;;;;;7.59;68.48;98261.66;10497096;28;20078;-62
2024/01/04 04:13:47;;;;;;;0.20;0.20;;;;;;;7.53;68.56;98272.50;10514842;28;20048;-62
2024/01/04 04:18:49;;;;;;;0.47;0.35;;;;;;;7.54;68.81;98279.34;10512801;28;20071;-63
2024/01/04 04:23:51;;;;;;;0.68;0.38;;;;;;;7.54;68.91;98289.75;10514403;28;20036;-62
2024/01/04 04:28:53;;;;;;;0.30;0.30;;;;;;;7.58;68.86;98297.25;10515113;28;20047;-62
2024/01/04 04:33:55;;;;;;;0.20;0.20;;;;;;;7.65;68.37;98311.44;10514542;28;20479;-62
2024/01/04 04:39:00;;;;;;;0.75;0.30;;;;;;;7.75;68.17;98319.41;10521195;28;20044;-63
2024/01/04 04:44:02;;;;;;;1.10;0.63;;;;;;;7.84;67.87;98332.56;10521465;28;20115;-63
2024/01/04 04:49:04;;;;;;;0.40;0.40;;;;;;;7.90;67.68;98332.13;10521651;28;20056;-63
2024/01/04 04:54:06;;;;;;;0.10;0.10;;;;;;;8.03;67.55;98353.72;10521577;28;20048;-63
2024/01/04 04:59:09;;;;;;;0.30;0.30;;;;;;;7.87;67.33;98374.00;10520997;28;20039;-63
2024/01/04 05:04:12;;;;;;;4.15;0.45;;;;;;;7.64;66.81;98364.44;10520808;28;20381;-63
2024/01/04 05:09:15;;;;;;;0.70;0.70;;;;;;;7.65;66.72;98371.28;10521048;28;20052;-63
2024/01/04 05:14:18;;;;;;;0.90;0.63;;;;;;;7.73;66.63;98387.16;10519973;28;20507;-62
2024/01/04 05:19:20;;;;;;;0.50;0.50;;;;;;;7.72;66.67;98388.13;10503954;28;20040;-65
2024/01/04 05:24:22;;;;;;;2.30;1.02;;;;;;;7.77;66.64;98399.00;10519469;28;20074;-63
2024/01/04 05:29:25;;;;;;;2.63;1.80;;;;;;;7.74;66.76;98394.03;10519828;28;20060;-63
2024/01/04 05:34:29;;;;;;;0.75;0.70;;;;;;;7.65;66.61;98417.31;10517455;28;20060;-64
2024/01/04 05:39:31;;;;;;;0.80;0.57;;;;;;;7.61;66.80;98418.47;10501250;28;20052;-63
2024/01/04 05:44:33;;;;;;;1.85;0.40;;;;;;;7.59;66.21;98426.38;10519823;28;20048;-63
2024/01/04 05:49:36;;;;;;;0.98;0.38;;;;;;;7.52;66.07;98425.16;10518452;28;20044;-63
2024/01/04 05:54:38;;;;;;;0.68;0.60;;;;;;;7.49;66.36;98422.75;10519087;28;20047;-63
2024/01/04 05:59:40;;;;;;;0.50;0.50;;;;;;;7.44;66.21;98434.44;10518216;28;20135;-63
2024/01/04 06:04:42;;;;;;;0.55;0.45;;;;;;;7.25;66.37;98428.84;10518633;28;20146;-63
2024/01/04 06:09:44;;;;;;;1.23;0.55;;;;;;;7.09;66.71;98444.69;10517538;28;20040;-63
2024/01/04 06:14:47;;;;;;;0.43;0.43;;;;;;;6.94;66.87;98453.53;10518401;28;20046;-63
2024/01/04 06:19:49;;;;;;;0.32;0.32;;;;;;;6.85;67.02;98461.97;10495688;28;20093;-63
2024/01/04 06:24:51;;;;;;;0.40;0.40;;;;;;;6.81;67.09;98471.75;10518127;28;20063;-63
2024/01/04 06:29:54;;;;;;;0.60;0.60;;;;;;;6.82;67.21;98475.16;10517900;28;20147;-63
2024/01/04 06:34:56;;;;;;;1.05;0.50;;;;;;;6.87;66.92;98473.09;10517738;28;20101;-63
2024/01/04 06:39:58;;;;;;;0.38;0.38;;;;;;;6.88;66.70;98479.94;10473915;28;20068;-63
2024/01/04 06:45:00;;;;;;;0.47;0.47;;;;;;;6.96;66.87;98485.44;10475253;28;20508;-63
2024/01/04 06:50:03;;;;;;;0.60;0.60;;;;;;;7.02;66.91;98490.25;10475237;28;20397;-63
2024/01/04 06:55:19;;;;;;;1.40;0.45;;;;;;;7.11;66.72;98500.00;10475193;28;20048;-63
2024/01/04 07:00:21;;;;;;;0.43;0.43;;;;;;;7.19;66.53;98489.91;10474640;28;20036;-63
2024/01/04 07:05:23;;;;;;;3.85;0.77;;;;;;;7.16;66.60;98513.53;10474401;28;20045;-63
2024/01/04 07:10:25;;;;;;;0.77;0.70;;;;;;;7.23;66.58;98521.72;10473972;28;20056;-64
2024/01/04 07:15:27;;;;;;;0.40;0.40;;;;;;;7.30;66.77;98520.38;10474435;28;20068;-64
2024/01/04 07:20:29;;;;;;;0.63;0.40;;;;;;;7.41;66.45;98526.50;10474491;28;20603;-64
2024/01/04 07:25:32;;;;;;;0.38;0.38;;;;;;;7.37;66.90;98532.00;10474422;28;20062;-63
2024/01/04 07:30:35;;;;;;;0.40;0.40;;;;;;;7.35;67.04;98545.13;10474392;28;20064;-64
2024/01/04 07:35:37;;;;;;;1.08;0.90;;;;;;;7.39;67.00;98535.34;10473974;28;20052;-64
2024/01/04 07:40:39;;;;;;;0.75;0.50;;;;;;;7.26;67.18;98534.53;10513619;28;20508;-63
2024/01/04 07:45:41;;;;;;;0.40;0.40;;;;;;;7.13;67.54;98535.38;10515866;28;20093;-63
2024/01/04 07:50:43;;;;;;;0.30;0.30;;;;;;;7.20;67.34;98548.78;10532137;28;20058;-63
2024/01/04 07:55:45;;;;;;;0.65;0.50;;;;;;;7.38;66.81;98554.50;10512238;28;20059;-63
2024/01/04 08:00:47;;;;;;;2.15;0.57;;;;;;;7.44;66.61;98565.31;10514976;28;20040;-63
2024/01/04 08:05:49;;;;;;;0.50;0.50;;;;;;;7.52;66.57;98565.63;10515857;28;20044;-63
2024/01/04 08:10:51;;;;;;;0.47;0.38;;;;;;;7.70;66.09;98577.34;10499338;28;21344;-63
2024/01/04 08:15:53;;;;;;;0.60;0.60;;;;;;;7.80;65.83;98586.19;10523406;28;20147;-63
2024/01/04 08:20:55;;;;;;;0.57;0.57;;;;;;;7.81;65.81;98585.22;10505015;28;20506;-63
2024/01/04 08:25:57;;;;;;;1.02;0.82;;;;;;;7.86;65.74;98595.34;10521961;28;20044;-63
2024/01/04 08:30:59;;;;;;;1.38;0.80;;;;;;;7.89;65.97;98601.19;10504558;28;20036;-63
2024/01/04 08:36:05;;;;;;;0.40;0.40;;;;;;;7.71;66.76;98615.44;10521783;28;20572;-63
2024/01/04 08:41:10;;;;;;;0.73;0.70;;;;;;;7.84;66.59;98611.06;10521317;28;20043;-64
2024/01/04 08:46:12;;;;;;;0.40;0.40;;;;;;;7.87;66.72;98628.25;10504385;28;20549;-63
2024/01/04 08:51:13;;;;;;;0.45;0.43;;;;;;;7.93;66.84;98635.63;10521560;28;20703;-63
2024/01/04 08:56:19;;;;;;;0.50;0.40;;;;;;;7.87;67.03;98631.69;10520901;28;20048;-63
2024/01/04 09:01:21;;;;;;;0.98;0.68;;;;;;;7.93;67.13;98636.47;10521237;28;20499;-63
2024/01/04 09:06:23;;;;;;;0.57;0.57;;;;;;;7.85;67.28;98643.94;10521032;28;20208;-63
2024/01/04 09:11:28;;;;;;;0.80;0.57;;;;;;;7.77;67.46;98648.03;10520806;28;20177;-63
2024/01/04 09:16:30;;;;;;;0.88;0.50;;;;;;;7.62;68.09;98657.72;10517556;28;20099;-64
2024/01/04 09:21:32;;;;;;;0.50;0.50;;;;;;;7.77;67.70;98664.47;10519577;28;20403;-64
2024/01/04 09:26:42;;;;;;;0.68;0.60;;;;;;;7.85;67.46;98669.97;10515719;28;20048;-64
2024/01/04 09:31:44;;;;;;;0.47;0.47;;;;;;;8.01;67.00;98670.63;10518350;28;20504;-63
2024/01/04 09:36:46;;;;;;;0.68;0.57;;;;;;;8.26;66.58;98689.78;10519557;28;20139;-63
2024/01/04 09:41:48;;;;;;;0.63;0.60;;;;;;;8.36;66.26;98699.44;10518352;28;20500;-63
2024/01/04 09:46:56;;;;;;;0.32;0.32;;;;;;;8.43;66.05;98715.47;10517994;28;20044;-63
2024/01/04 09:51:58;;;;;;;0.52;0.52;;;;;;;8.45;66.10;98717.03;10517534;28;20495;-64
2024/01/04 09:57:00;;;;;;;0.30;0.30;;;;;;;8.50;66.17;98725.34;10532750;28;20052;-63
2024/01/04 10:02:03;;;;;;;1.08;0.55;;;;;;;8.49;66.34;98741.06;10518173;28;20071;-63
2024/01/04 10:07:06;;;;;;;3.60;0.88;;;;;;;8.44;66.32;98746.63;10501007;28;20072;-64
2024/01/04 10:12:11;;;;;;;0.95;0.60;;;;;;;8.56;66.27;98757.97;10500081;28;20142;-63
2024/01/04 10:17:13;;;;;;;1.92;0.98;;;;;;;8.81;65.75;98760.53;10515227;28;20415;-64
2024/01/04 10:22:23;;;;;;;0.60;0.60;;;;;;;8.73;65.41;98763.66;10517442;28;20062;-63
2024/01/04 10:27:25;;;;;;;0.90;0.70;;;;;;;8.67;65.82;98764.06;10515156;28;20046;-63
2024/01/04 10:32:27;;;;;;;0.55;0.50;;;;;;;8.79;65.02;98767.63;10532101;28;20040;-63
2024/01/04 10:37:29;;;;;;;0.47;0.45;;;;;;;8.75;64.83;98768.78;10514851;28;20055;-64
2024/01/04 10:42:32;;;;;;;0.35;0.35;;;;;;;8.69;65.12;98775.22;10516501;28;20040;-64
2024/01/04 10:47:35;;;;;;;0.98;0.70;;;;;;;8.70;65.12;98779.50;10510317;28;20590;-64
2024/01/04 10:52:39;;;;;;;0.30;0.30;;;;;;;8.85;64.52;98770.59;10497288;28;20051;-63
2024/01/04 10:57:42;;;;;;;0.20;0.20;;;;;;;8.73;64.24;98786.25;10516226;28;20595;-63
2024/01/04 11:02:45;;;;;;;0.30;0.30;;;;;;;8.84;63.96;98786.34;10515461;28;20143;-64
2024/01/04 11:07:49;;;;;;;0.20;0.20;;;;;;;9.12;62.91;98790.44;10511898;28;20381;-64
2024/01/04 11:12:52;;;;;;;0.20;0.20;;;;;;;9.18;62.95;98796.03;10515728;28;20407;-64
2024/01/04 11:18:16;;;;;;;0.45;0.38;;;;;;;8.98;62.46;98794.03;10515260;28;20147;-64
2024/01/04 11:23:34;;;;;;;0.65;0.50;;;;;;;8.81;62.22;98790.00;10509715;28;20059;-64
2024/01/04 11:28:53;;;;;;;0.57;0.30;;;;;;;8.83;63.45;98792.53;10510795;28;20149;-63
2024/01/04 11:34:11;;;;;;;1.43;0.73;;;;;;;8.62;63.89;98796.63;10499472;28;20059;-64
2024/01/04 11:39:14;;;;;;;4.63;1.30;;;;;;;8.58;64.02;98801.22;10512077;28;20048;-67
2024/01/04 11:44:16;;;;;;;2.08;1.08;;;;;;;8.56;63.57;98808.31;10513964;28;20072;-67
2024/01/04 11:49:19;;;;;;;3.33;1.73;;;;;;;8.73;63.67;98801.91;10521516;28;20135;-67
2024/01/04 11:54:22;;;;;;;3.20;1.70;;;;;;;8.73;63.99;98788.88;10519885;28;20048;-67
2024/01/04 11:59:32;;;;;;;3.42;1.30;;;;;;;8.74;64.35;98795.75;10520514;28;20129;-67
2024/01/04 12:04:37;;;;;;;1.98;1.33;;;;;;;8.95;63.92;98793.41;10497379;28;20098;-67
2024/01/04 12:09:42;;;;;;;1.77;0.93;;;;;;;8.84;64.18;98791.56;10522258;28;20650;-68
2024/01/04 12:14:44;;;;;;;3.53;0.90;;;;;;;8.88;64.08;98784.34;10520821;28;20055;-68
2024/01/04 12:19:48;;;;;;;5.22;1.95;;;;;;;9.02;63.68;98784.19;10521095;28;20131;-67
2024/01/04 12:24:50;;;;;;;3.03;0.85;;;;;;;9.03;63.32;98783.28;10520892;28;20063;-67
2024/01/04 12:29:53;;;;;;;5.20;1.17;;;;;;;8.93;62.44;98784.88;10521928;28;20058;-67
2024/01/04 12:34:55;;;;;;;2.92;1.15;;;;;;;8.87;62.68;98790.53;10520205;28;20127;-68
2024/01/04 12:40:07;;;;;;;2.92;1.08;;;;;;;8.94;61.14;98783.91;10520768;28;20056;-67
2024/01/04 12:45:09;;;;;;;2.20;1.00;;;;;;;8.95;61.86;98793.41;10519816;28;20048;-67
2024/01/04 12:50:18;;;;;;;4.15;1.30;;;;;;;8.94;60.56;98784.75;10502813;28;20515;-67
2024/01/04 12:55:20;;;;;;;4.53;0.90;;;;;;;9.24;60.64;98782.56;10517905;28;20097;-67
2024/01/04 13:00:22;;;;;;;2.17;1.08;;;;;;;9.44;60.15;98794.97;10535424;27;20047;-67
2024/01/04 13:05:24;;;;;;;2.75;1.13;;;;;;;9.38;59.39;98794.63;10519990;28;20121;-68
2024/01/04 13:10:27;;;;;;;5.63;1.33;;;;;;;9.30;59.51;98797.75;10518193;28;20093;-68
2024/01/04 13:15:29;;;;;;;6.63;1.30;;;;;;;9.10;59.10;98810.56;10519928;28;20071;-67
2024/01/04 13:20:31;;;;;;;4.43;1.15;;;;;;;8.97;59.44;98817.63;10520103;28;20047;-67
2024/01/04 13:25:34;;;;;;;0.63;0.57;;;;;;;8.89;58.55;98812.94;10518044;28;20048;-67
2024/01/04 13:30:36;;;;;;;1.17;0.75;;;;;;;9.04;57.44;98816.22;10519850;28;20050;-67
2024/01/04 13:35:38;;;;;;;5.82;1.45;;;;;;;9.13;58.33;98826.84;10519069;28;20054;-68
2024/01/04 13:40:39;;;;;;;8.05;1.60;;;;;;;8.93;58.52;98830.03;10517949;28;20576;-68
2024/01/04 13:45:41;;;;;;;2.83;0.95;;;;;;;9.19;58.03;98825.56;10517138;28;20076;-67
2024/01/04 13:50:45;;;;;;;1.45;0.90;;;;;;;9.24;58.08;98839.94;10517145;28;20075;-67
2024/01/04 13:55:47;;;;;;;3.45;1.23;;;;;;;9.14;57.63;98841.53;10518334;28;20052;-68
2024/01/04 14:00:49;;;;;;;2.75;1.20;;;;;;;9.15;57.27;98852.81;10517510;28;20052;-68
2024/01/04 14:05:53;;;;;;;2.88;0.90;;;;;;;9.16;57.14;98855.31;10518022;28;20047;-67
2024/01/04 14:10:56;;;;;;;2.80;1.10;;;;;;;9.12;56.91;98859.09;10531761;27;20040;-68
2024/01/04 14:15:58;;;;;;;4.80;1.45;;;;;;;9.15;56.34;98861.50;10500034;28;20059;-68
2024/01/04 14:21:01;;;;;;;10.25;1.92;;;;;;;9.11;56.30;98867.03;10517655;28;20059;-67
2024/01/04 14:26:03;;;;;;;5.50;1.80;;;;;;;9.10;56.70;98862.72;10517431;28;20052;-67
2024/01/04 14:31:05;;;;;;;5.10;1.83;;;;;;;9.14;56.25;98862.41;10517746;28;20567;-68
2024/01/04 14:36:10;;;;;;;6.07;2.08;;;;;;;9.13;56.19;98871.19;10517077;28;20143;-67
2024/01/04 14:41:12;;;;;;;6.60;1.60;;;;;;;9.00;56.23;98879.97;10499432;28;20055;-67
2024/01/04 14:46:24;;;;;;;4.47;2.00;;;;;;;8.91;55.73;98876.25;10517598;28;20135;-67
2024/01/04 14:51:26;;;;;;;4.00;1.48;;;;;;;8.64;56.01;98889.41;10516870;28;20128;-67
2024/01/04 14:56:29;;;;;;;5.07;1.92;;;;;;;8.59;56.34;98901.91;10497061;28;20077;-67
2024/01/04 15:01:31;;;;;;;1.52;0.80;;;;;;;8.40;55.86;98905.88;10516795;28;20126;-67
2024/01/04 15:06:34;;;;;;;4.75;1.00;;;;;;;8.41;56.06;98903.16;10517060;28;20044;-67
2024/01/04 15:11:36;;;;;;;2.88;1.23;;;;;;;8.53;56.31;98888.44;10515645;28;20051;-67
2024/01/04 15:16:38;;;;;;;3.78;1.55;;;;;;;8.53;56.78;98885.84;10515368;28;20122;-68
2024/01/04 15:21:40;;;;;;;1.05;0.63;;;;;;;8.29;56.78;98897.91;10495450;28;21055;-67
2024/01/04 15:26:42;;;;;;;5.32;1.55;;;;;;;8.25;56.98;98897.31;10515642;28;20052;-66
2024/01/04 15:31:44;;;;;;;5.70;1.98;;;;;;;8.30;57.18;98891.78;10512859;28;20056;-67
2024/01/04 15:36:46;;;;;;;5.32;1.50;;;;;;;8.42;57.12;98898.78;10514550;28;20144;-67
2024/01/04 15:41:51;;;;;;;5.35;1.45;;;;;;;8.38;57.26;98899.94;10514701;28;20519;-67
2024/01/04 15:46:54;;;;;;;2.80;0.80;;;;;;;8.29;57.31;98896.16;10514983;28;20058;-67
2024/01/04 15:51:56;;;;;;;2.60;1.20;;;;;;;8.21;57.42;98905.41;10513874;28;20699;-68
2024/01/04 15:56:58;;;;;;;4.03;1.13;;;;;;;8.11;57.42;98899.97;10478591;28;20055;-66
2024/01/04 16:02:00;;;;;;;4.57;1.83;;;;;;;8.08;57.70;98900.13;10497483;28;20474;-67
2024/01/04 16:07:02;;;;;;;1.88;0.80;;;;;;;7.92;57.74;98908.13;10514728;28;20036;-67
2024/01/04 16:12:06;;;;;;;2.17;1.00;;;;;;;7.83;58.07;98913.91;10514366;28;20044;-67
2024/01/04 16:17:08;;;;;;;1.90;1.00;;;;;;;7.73;58.26;98931.06;10529738;28;20133;-67
2024/01/04 16:22:10;;;;;;;2.35;1.23;;;;;;;7.59;58.55;98932.91;10513946;28;20032;-67
2024/01/04 16:27:12;;;;;;;2.83;0.95;;;;;;;7.33;59.23;98926.72;10511649;28;20048;-67
2024/01/04 16:32:14;;;;;;;3.50;0.95;;;;;;;7.29;59.21;98934.78;10516799;28;20126;-67
2024/01/04 16:37:16;;;;;;;2.40;1.05;;;;;;;7.18;59.44;98932.88;10521529;28;20166;-68
2024/01/04 16:42:19;;;;;;;3.67;1.50;;;;;;;7.16;59.56;98939.94;10522036;28;20484;-68
2024/01/04 16:47:21;;;;;;;5.88;1.75;;;;;;;7.05;59.86;98935.41;10520864;28;20044;-67
2024/01/04 16:52:24;;;;;;;9.45;1.40;;;;;;;7.07;60.03;98937.88;10521241;28;20080;-67
2024/01/04 16:57:25;;;;;;;6.57;2.17;;;;;;;7.01;59.94;98944.31;10519394;28;20154;-67
2024/01/04 17:02:28;;;;;;;2.22;1.30;;;;;;;7.00;60.07;98946.97;10500588;28;20137;-67
2024/01/04 17:07:50;;;;;;;4.88;2.03;;;;;;;6.94;60.55;98943.00;10503753;28;20549;-68
2024/01/04 17:12:52;;;;;;;1.42;0.80;;;;;;;6.88;60.52;98945.97;10521054;28;20052;-68
2024/01/04 17:17:54;;;;;;;2.38;1.10;;;;;;;6.78;60.54;98944.84;10519500;28;20055;-67
2024/01/04 17:22:57;;;;;;;4.40;1.15;;;;;;;6.70;60.78;98930.63;10518897;28;20075;-67
2024/01/04 17:27:59;;;;;;;4.00;1.42;;;;;;;6.64;61.08;98931.00;10502714;28;20423;-67
2024/01/04 17:33:01;;;;;;;4.93;2.13;;;;;;;6.58;61.16;98932.22;10518962;28;20048;-67
2024/01/04 17:38:04;;;;;;;4.32;1.77;;;;;;;6.53;61.47;98928.22;10518248;28;20059;-67
2024/01/04 17:43:06;;;;;;;3.13;1.83;;;;;;;6.47;61.52;98929.41;10517643;28;20040;-68
2024/01/04 17:48:08;;;;;;;6.47;1.98;;;;;;;6.47;61.62;98928.59;10500569;28;20063;-67
2024/01/04 17:53:11;;;;;;;5.47;1.35;;;;;;;6.50;61.79;98918.00;10500661;28;20051;-67
2024/01/04 17:58:13;;;;;;;3.35;1.33;;;;;;;6.59;61.86;98925.25;10533790;28;20040;-67
2024/01/04 18:03:15;;;;;;;3.85;1.55;;;;;;;6.69;61.96;98929.81;10518119;28;20549;-67
2024/01/04 18:08:18;;;;;;;3.60;1.50;;;;;;;6.92;61.68;98934.47;10514532;28;20496;-67
2024/01/04 18:13:20;;;;;;;3.00;1.77;;;;;;;7.09;61.28;98936.03;10515993;28;20046;-67
2024/01/04 18:18:22;;;;;;;10.63;2.50;;;;;;;7.15;61.42;98931.28;10499575;28;20051;-67
2024/01/04 18:23:24;;;;;;;7.28;2.30;;;;;;;7.13;61.54;98935.75;10517288;28;20051;-67
2024/01/04 18:28:26;;;;;;;3.90;1.83;;;;;;;7.13;61.38;98932.31;10517808;28;20119;-68
2024/01/04 18:33:28;;;;;;;4.47;1.33;;;;;;;6.95;61.08;98923.03;10515752;28;20044;-67
2024/01/04 18:38:30;;;;;;;4.93;2.22;;;;;;;6.68;61.39;98935.09;10516630;28;20043;-67
2024/01/04 18:43:32;;;;;;;2.83;1.30;;;;;;;6.41;61.73;98939.34;10516825;28;20067;-67
2024/01/04 18:48:36;;;;;;;5.53;1.60;;;;;;;6.27;62.05;98935.78;10516626;28;20391;-68
2024/01/04 18:53:38;;;;;;;5.18;1.88;;;;;;;6.18;62.11;98936.28;10497185;28;20082;-61
2024/01/04 18:58:40;;;;;;;8.00;2.63;;;;;;;6.18;62.62;98932.84;10512467;28;20048;-61
2024/01/04 19:03:43;;;;;;;5.18;1.83;;;;;;;5.97;62.49;98918.50;10512275;28;20039;-61
2024/01/04 19:08:45;;;;;;;5.80;2.05;;;;;;;5.78;62.88;98939.44;10512058;28;20036;-62
2024/01/04 19:13:47;;;;;;;8.52;3.15;;;;;;;5.63;63.24;98931.69;10512927;28;20044;-61
2024/01/04 19:18:49;;;;;;;9.30;3.25;;;;;;;5.57;63.54;98927.69;10515473;28;20066;-61
2024/01/04 19:23:54;;;;;;;9.70;3.10;;;;;;;5.51;63.78;98920.25;10513228;28;20496;-61
2024/01/04 19:28:56;;;;;;;3.42;2.10;;;;;;;5.33;63.89;98914.28;10515159;28;20048;-61
2024/01/04 19:33:59;;;;;;;3.83;1.98;;;;;;;5.19;63.87;98905.59;10515337;28;20046;-62
2024/01/04 19:39:01;;;;;;;6.45;2.47;;;;;;;5.23;64.29;98927.84;10510310;28;20055;-61
2024/01/04 19:44:03;;;;;;;9.98;3.15;;;;;;;5.17;64.18;98918.63;10514192;28;20059;-61
2024/01/04 19:49:05;;;;;;;3.60;2.38;;;;;;;5.24;64.46;98912.22;10513094;28;20127;-62
2024/01/04 19:54:07;;;;;;;5.82;2.88;;;;;;;5.42;64.47;98905.19;10514477;28;20056;-61
2024/01/04 19:59:09;;;;;;;7.65;3.10;;;;;;;5.54;64.33;98907.09;10514547;28;20120;-62
2024/01/04 20:04:12;;;;;;;7.65;3.10;;;;;;;5.74;64.40;98903.41;10515429;28;20052;-61
2024/01/04 20:09:14;;;;;;;11.23;3.38;;;;;;;5.86;64.03;98902.72;10521444;28;20040;-62
2024/01/04 20:14:16;;;;;;;7.30;3.60;;;;;;;5.92;64.01;98916.16;10523861;28;20058;-62
2024/01/04 20:19:19;;;;;;;8.75;3.90;;;;;;;6.04;63.76;98915.44;10523424;28;20044;-61
2024/01/04 20:24:33;;;;;;;8.05;3.40;;;;;;;6.00;63.84;98898.38;10523099;28;20047;-62
2024/01/04 20:29:37;;;;;;;8.18;4.05;;;;;;;5.96;63.97;98886.50;10522666;28;20040;-61
2024/01/04 20:34:40;;;;;;;7.40;3.58;;;;;;;5.84;64.58;98881.22;10522586;28;20135;-61
2024/01/04 20:39:42;;;;;;;7.07;3.05;;;;;;;6.09;64.61;98871.06;10522519;28;20056;-61
2024/01/04 20:44:44;;;;;;;8.98;3.88;;;;;;;6.12;64.40;98876.91;10520118;28;20042;-62
2024/01/04 20:49:49;;;;;;;9.02;3.50;;;;;;;6.25;64.63;98885.69;10518558;28;20080;-62
2024/01/04 20:54:53;;;;;;;6.47;3.40;;;;;;;6.38;64.41;98884.97;10500828;28;20040;-62
2024/01/04 20:59:55;;;;;;;6.40;3.03;;;;;;;6.47;64.21;98887.84;10518488;28;20511;-62
2024/01/04 21:04:58;;;;;;;10.23;3.58;;;;;;;6.40;64.28;98883.97;10517383;28;20484;-62
2024/01/04 21:10:00;;;;;;;9.63;3.55;;;;;;;6.45;64.23;98883.69;10484158;28;20056;-62
2024/01/04 21:15:02;;;;;;;14.45;3.90;;;;;;;6.39;64.09;98873.66;10515511;28;20561;-63
2024/01/04 21:20:07;;;;;;;7.38;3.75;;;;;;;6.43;64.26;98875.97;10517904;28;20060;-63
2024/01/04 21:25:08;;;;;;;12.13;5.32;;;;;;;6.37;64.30;98871.13;10498431;28;20067;-62
2024/01/04 21:30:11;;;;;;;9.27;3.53;;;;;;;6.37;64.27;98865.13;10518342;28;20128;-63
2024/01/04 21:35:13;;;;;;;6.38;3.05;;;;;;;6.38;64.47;98864.19;10519516;28;20044;-63
2024/01/04 21:40:16;;;;;;;9.75;4.38;;;;;;;6.54;64.28;98862.34;10518673;28;20277;-62
2024/01/04 21:45:18;;;;;;;10.55;3.47;;;;;;;6.48;64.32;98852.31;10517479;28;20043;-62
2024/01/04 21:50:20;;;;;;;7.63;3.40;;;;;;;6.53;64.30;98855.50;10518479;28;20510;-63
2024/01/04 21:55:22;;;;;;;7.32;3.35;;;;;;;6.70;64.27;98857.88;10512227;28;20044;-63
2024/01/04 22:00:38;;;;;;;9.40;3.60;;;;;;;6.75;63.92;98848.06;10517016;28;20094;-63
2024/01/04 22:05:40;;;;;;;8.38;2.90;;;;;;;6.75;63.85;98850.66;10517368;28;20059;-63
2024/01/04 22:10:42;;;;;;;7.57;2.92;;;;;;;6.77;63.62;98851.41;10516644;28;20047;-62
2024/01/04 22:15:44;;;;;;;6.72;3.08;;;;;;;6.58;64.14;98848.25;10516586;28;20055;-63
2024/01/04 22:20:46;;;;;;;8.82;2.83;;;;;;;6.45;64.46;98842.13;10516269;28;20052;-62
2024/01/04 22:25:49;;;;;;;6.20;3.28;;;;;;;6.54;64.63;98838.97;10516807;28;20044;-63
2024/01/04 22:30:51;;;;;;;5.78;3.13;;;;;;;6.60;64.32;98826.44;10515242;28;20153;-63
2024/01/04 22:35:53;;;;;;;6.95;2.70;;;;;;;6.46;64.65;98826.47;10507560;28;20062;-63
2024/01/04 22:40:55;;;;;;;6.95;3.03;;;;;;;6.66;64.61;98809.66;10467996;28;20137;-63
2024/01/04 22:45:57;;;;;;;5.43;2.53;;;;;;;6.78;64.46;98804.53;10474058;28;20048;-63
2024/01/04 22:50:59;;;;;;;6.15;2.92;;;;;;;6.69;64.39;98796.47;10474314;28;20910;-62
2024/01/04 22:56:01;;;;;;;8.07;3.45;;;;;;;6.74;64.38;98782.25;10473952;28;20048;-62
2024/01/04 23:01:03;;;;;;;9.43;3.45;;;;;;;6.77;64.52;98776.91;10473756;28;20049;-62
2024/01/04 23:06:05;;;;;;;8.85;4.00;;;;;;;6.76;64.66;98764.81;10475369;28;20052;-62
2024/01/04 23:11:08;;;;;;;13.60;5.47;;;;;;;6.87;64.40;98757.19;10472981;28;20131;-62
2024/01/04 23:16:12;;;;;;;9.73;3.72;;;;;;;6.87;64.20;98735.56;10474871;28;20047;-62
2024/01/04 23:21:14;;;;;;;10.45;3.67;;;;;;;6.83;64.30;98736.69;10474109;28;20413;-62
2024/01/04 23:26:16;;;;;;;7.22;3.53;;;;;;;6.78;64.24;98736.13;10474628;28;20056;-62
2024/01/04 23:31:18;;;;;;;6.38;3.22;;;;;;;6.77;64.15;98730.13;10474354;28;20045;-63
2024/01/04 23:36:20;;;;;;;6.35;2.75;;;;;;;6.81;64.32;98721.19;10477560;28;20052;-62
2024/01/04 23:41:24;;;;;;;8.63;3.58;;;;;;;6.91;64.15;98711.88;10518887;28;20439;-63
2024/01/04 23:46:27;;;;;;;6.68;2.65;;;;;;;6.90;64.07;98706.75;10522923;28;20048;-62
2024/01/04 23:51:29;;;;;;;6.03;2.38;;;;;;;6.92;63.95;98710.09;10523563;28;20040;-63
2024/01/04 23:56:31;;;;;;;8.20;3.13;;;;;;;6.99;64.05;98713.97;10524101;28;20082;-62
